Terminal Aerodrome Forecast
Issued by NWS

Home | Current Version | Previous Version | Text Only | Print | Product List | Glossary On
Versions: 1 2 3 4 5 6 7 8 9 10 11 12
780
FTAK31 PAJN 222326
TAFAPG
TAF
PAPG 222326Z 2300/2324 VRB04KT P6SM VCSH SCT060 BKN120
     FM230200 08005KT P6SM -SHRA SCT020 BKN040
     FM231100 VRB04KT 5SM -SHRA BR SCT010 OVC025
     FM231700 VRB04KT P6SM -SHRA SCT015 OVC035
      AMD LTD TO CLD VIS AND WIND 2306/2315=

USA.gov is the U.S. government's official web portal to all federal, state and local government web resources and services.